Time;durP1;ratioP1;P1;durP2;ratioP2;P2;SDS_P1;SDS_P2;PMS_P1;PMS_P2;Temp;Humidity;BMP_temperature;BMP_pressure;BME280_temperature;BME280_humidity;BME280_pressure;Samples;Min_cycle;Max_cycle;Signal;HPM_P1;HPM_P2
2023/08/31 00:01:15;;;;;;;6.17;3.90;;;;;;;11.14;100.00;100664.66;5221571;28;20037;-80
2023/08/31 00:03:46;;;;;;;7.87;3.67;;;;;;;11.05;100.00;100670.84;5221774;28;20037;-80
2023/08/31 00:06:18;;;;;;;7.20;4.03;;;;;;;11.06;100.00;100664.78;5221521;28;20037;-80
2023/08/31 00:08:49;;;;;;;6.67;4.73;;;;;;;11.04;100.00;100668.28;5221313;28;20053;-79
2023/08/31 00:11:21;;;;;;;7.90;4.63;;;;;;;11.01;100.00;100669.22;5204098;28;20033;-81
2023/08/31 00:13:52;;;;;;;9.73;5.50;;;;;;;10.92;100.00;100667.59;5221603;28;20084;-80
2023/08/31 00:16:25;;;;;;;5.63;4.50;;;;;;;10.87;100.00;100671.19;5204011;28;20037;-81
2023/08/31 00:18:57;;;;;;;7.47;4.50;;;;;;;10.90;100.00;100669.38;5221613;28;20038;-81
2023/08/31 00:21:30;;;;;;;7.97;5.53;;;;;;;10.81;100.00;100669.50;5221470;28;20127;-81
2023/08/31 00:24:02;;;;;;;8.48;5.43;;;;;;;10.82;100.00;100668.63;5221624;28;20116;-80
2023/08/31 00:26:33;;;;;;;6.60;4.77;;;;;;;10.80;100.00;100672.13;5221140;28;20497;-81
2023/08/31 00:29:05;;;;;;;8.07;5.33;;;;;;;10.75;100.00;100662.66;5221200;28;20385;-81
2023/08/31 00:31:37;;;;;;;7.80;5.60;;;;;;;10.70;100.00;100666.22;5221191;28;20033;-81
2023/08/31 00:34:14;;;;;;;8.43;5.40;;;;;;;10.70;100.00;100664.44;5221368;28;20038;-81
2023/08/31 00:36:46;;;;;;;7.13;5.72;;;;;;;10.62;100.00;100668.91;5220975;28;20749;-82
2023/08/31 00:39:20;;;;;;;7.83;6.00;;;;;;;10.62;100.00;100668.06;5221295;28;20052;-81
2023/08/31 00:41:52;;;;;;;6.32;5.65;;;;;;;10.58;100.00;100664.66;5204200;28;20363;-80
2023/08/31 00:44:24;;;;;;;8.30;6.22;;;;;;;10.51;100.00;100669.09;5225028;28;20034;-81
2023/08/31 00:46:56;;;;;;;7.97;6.67;;;;;;;10.55;100.00;100673.38;5225429;28;20029;-80
2023/08/31 00:49:27;;;;;;;9.13;6.27;;;;;;;10.51;100.00;100670.81;5225388;28;20034;-80
2023/08/31 00:51:59;;;;;;;7.83;6.07;;;;;;;10.45;100.00;100670.91;5225457;28;20029;-81
2023/08/31 00:54:31;;;;;;;10.80;5.77;;;;;;;10.51;100.00;100670.81;5225809;28;20508;-82
2023/08/31 00:57:03;;;;;;;9.82;6.55;;;;;;;10.39;100.00;100672.72;5225332;28;20034;-81
2023/08/31 00:59:36;;;;;;;8.23;5.95;;;;;;;10.42;100.00;100670.94;5225292;28;20095;-81
2023/08/31 01:02:22;;;;;;;10.55;6.68;;;;;;;10.40;100.00;100674.47;5225200;28;20113;-81
2023/08/31 01:05:15;;;;;;;9.10;6.30;;;;;;;10.38;100.00;100659.72;5224983;28;20026;-82
2023/08/31 01:07:58;;;;;;;7.95;6.05;;;;;;;10.33;100.00;100658.91;5224593;28;20076;-80
2023/08/31 01:10:50;;;;;;;;;;;;;;;10.33;100.00;100659.78;5208743;28;20366;-81
2023/08/31 01:13:24;;;;;;;9.02;5.88;;;;;;;10.31;100.00;100658.91;5199811;28;19955;-80
2023/08/31 01:15:59;;;;;;;8.57;6.10;;;;;;;10.29;100.00;100659.78;5224875;28;20050;-79
2023/08/31 01:18:35;;;;;;;6.95;6.10;;;;;;;10.25;100.00;100659.00;5224973;28;20034;-79
2023/08/31 01:21:40;;;;;;;8.18;6.43;;;;;;;10.20;100.00;100659.03;5225176;28;20036;-80
2023/08/31 01:24:12;;;;;;;8.07;7.18;;;;;;;10.21;100.00;100662.53;5225465;28;20040;-80
2023/08/31 01:26:43;;;;;;;8.00;6.20;;;;;;;10.12;100.00;100647.88;5224968;28;20393;-81
2023/08/31 01:29:15;;;;;;;8.67;6.67;;;;;;;10.17;100.00;100655.63;5224396;28;20116;-82
2023/08/31 01:31:47;;;;;;;9.30;6.67;;;;;;;10.11;100.00;100669.59;5224756;28;20029;-81
2023/08/31 01:34:18;;;;;;;11.73;6.60;;;;;;;10.06;100.00;100663.56;5224573;28;20049;-81
2023/08/31 01:36:58;;;;;;;8.90;7.30;;;;;;;10.08;100.00;100669.66;5224424;28;20091;-80
2023/08/31 01:39:40;;;;;;;11.63;7.30;;;;;;;10.06;100.00;100671.38;5207472;28;20073;-79
2023/08/31 01:42:15;;;;;;;8.25;7.45;;;;;;;10.09;100.00;100673.09;5224719;28;20109;-80
2023/08/31 01:44:48;;;;;;;8.65;7.22;;;;;;;10.03;100.00;100677.50;5224053;28;20424;-81
2023/08/31 01:47:20;;;;;;;11.00;9.05;;;;;;;10.01;100.00;100675.78;5223976;28;20057;-79
2023/08/31 01:49:51;;;;;;;11.33;8.20;;;;;;;10.08;100.00;100674.84;5202229;28;20073;-79
2023/08/31 01:52:23;;;;;;;12.18;9.40;;;;;;;10.10;100.00;100680.03;5203150;28;20026;-77
2023/08/31 01:54:54;;;;;;;9.03;8.13;;;;;;;10.03;100.00;100672.31;5202191;28;20494;-79
2023/08/31 01:57:26;;;;;;;12.20;9.03;;;;;;;10.04;100.00;100673.16;5203483;28;20443;-79
2023/08/31 01:59:57;;;;;;;9.93;8.93;;;;;;;10.03;100.00;100679.25;5203246;28;20113;-79
2023/08/31 02:02:28;;;;;;;13.07;9.30;;;;;;;10.04;100.00;100671.41;5203636;28;20034;-78
2023/08/31 02:05:01;;;;;;;10.53;8.83;;;;;;;10.07;100.00;100680.94;5203205;28;20066;-80
2023/08/31 02:07:33;;;;;;;13.30;9.73;;;;;;;10.15;100.00;100679.09;5202909;28;20085;-79
2023/08/31 02:10:06;;;;;;;11.13;9.90;;;;;;;10.22;100.00;100678.16;5203249;28;20490;-81
2023/08/31 02:12:37;;;;;;;12.13;8.85;;;;;;;10.27;100.00;100680.69;5203550;28;20026;-80
2023/08/31 02:15:09;;;;;;;10.97;9.60;;;;;;;10.31;100.00;100682.34;5203420;28;20088;-80
2023/08/31 02:17:41;;;;;;;10.48;9.38;;;;;;;10.35;100.00;100686.69;5203198;28;20187;-79
2023/08/31 02:20:13;;;;;;;10.33;9.20;;;;;;;10.37;100.00;100689.28;5201141;28;20022;-79
2023/08/31 02:22:45;;;;;;;;;;;;;;;10.46;100.00;100696.09;5203145;28;20045;-79
2023/08/31 02:25:16;;;;;;;13.13;9.27;;;;;;;10.40;100.00;100684.88;5202176;28;19914;-79
2023/08/31 02:27:48;;;;;;;11.07;9.33;;;;;;;10.43;100.00;100690.91;5202541;28;20034;-80
2023/08/31 02:30:19;;;;;;;11.03;8.57;;;;;;;10.47;100.00;100682.19;5203190;28;20383;-80
2023/08/31 02:32:50;;;;;;;9.50;8.40;;;;;;;10.49;100.00;100683.88;5202915;28;20061;-80
2023/08/31 02:35:22;;;;;;;10.67;8.80;;;;;;;10.46;100.00;100681.31;5202948;28;20113;-80
2023/08/31 02:37:53;;;;;;;12.07;9.27;;;;;;;10.47;100.00;100682.19;5202399;28;20089;-79
2023/08/31 02:40:25;;;;;;;10.87;9.40;;;;;;;10.40;100.00;100673.59;5202778;28;20065;-77
2023/08/31 02:42:57;;;;;;;11.20;9.33;;;;;;;10.35;100.00;100678.88;5202667;28;20035;-80
2023/08/31 02:45:28;;;;;;;12.03;10.80;;;;;;;10.29;100.00;100691.06;5185293;28;20097;-79
2023/08/31 02:47:59;;;;;;;14.10;12.63;;;;;;;10.27;100.00;100685.91;5202168;28;20803;-79
2023/08/31 02:50:31;;;;;;;15.40;13.53;;;;;;;10.25;100.00;100687.66;5202217;28;20030;-80
2023/08/31 02:53:03;;;;;;;17.30;15.23;;;;;;;10.26;100.00;100684.16;5202666;28;20579;-80
2023/08/31 02:55:34;;;;;;;22.33;18.17;;;;;;;10.25;100.00;100686.78;5202804;28;20027;-78
2023/08/31 02:58:05;;;;;;;22.23;18.43;;;;;;;10.20;100.00;100685.09;5202494;28;20274;-80
2023/08/31 03:00:42;;;;;;;23.70;20.07;;;;;;;10.22;100.00;100685.06;5202110;28;20072;-80
2023/08/31 03:03:15;;;;;;;21.95;19.65;;;;;;;10.15;100.00;100684.28;5201976;28;20053;-80
2023/08/31 03:05:47;;;;;;;26.60;22.10;;;;;;;10.16;100.00;100680.81;5202316;28;20077;-80
2023/08/31 03:08:18;;;;;;;25.20;22.47;;;;;;;10.10;100.00;100685.25;5201675;28;20470;-80
2023/08/31 03:10:49;;;;;;;25.23;22.17;;;;;;;10.07;100.00;100686.13;5202497;28;20562;-79
2023/08/31 03:13:21;;;;;;;24.00;21.47;;;;;;;9.98;100.00;100684.53;5201908;28;20026;-79
2023/08/31 03:15:52;;;;;;;24.53;21.87;;;;;;;9.97;100.00;100679.34;5168614;28;20073;-79
2023/08/31 03:18:24;;;;;;;22.47;20.07;;;;;;;9.96;100.00;100682.81;5202130;28;20425;-79
2023/08/31 03:20:55;;;;;;;24.33;21.30;;;;;;;9.91;100.00;100687.22;5201816;28;20026;-78
2023/08/31 03:23:29;;;;;;;21.47;19.33;;;;;;;9.88;100.00;100687.25;5202136;28;20030;-80
2023/08/31 03:26:07;;;;;;;20.63;18.50;;;;;;;9.88;100.00;100687.25;5201983;28;20022;-80
2023/08/31 03:28:40;;;;;;;22.83;19.02;;;;;;;9.85;100.00;100694.22;5202059;28;20088;-79
2023/08/31 03:31:12;;;;;;;21.55;19.23;;;;;;;9.86;100.00;100690.72;5184599;28;20034;-79
2023/08/31 03:33:43;;;;;;;23.57;19.10;;;;;;;9.85;100.00;100693.34;5201626;28;20518;-80
2023/08/31 03:36:14;;;;;;;22.93;20.73;;;;;;;9.88;100.00;100692.44;5201638;28;20026;-81
2023/08/31 03:38:46;;;;;;;24.47;20.27;;;;;;;9.84;100.00;100687.28;5201716;28;20479;-80
2023/08/31 03:41:17;;;;;;;25.20;21.63;;;;;;;9.86;100.00;100689.84;5202267;28;20030;-81
2023/08/31 03:43:48;;;;;;;24.23;21.93;;;;;;;9.88;100.00;100684.63;5201989;28;20144;-79
2023/08/31 03:46:20;;;;;;;28.83;23.23;;;;;;;9.91;100.00;100682.00;5201767;28;20076;-79
2023/08/31 03:48:51;;;;;;;25.47;22.80;;;;;;;9.91;100.00;100682.00;5201360;28;20561;-79
2023/08/31 03:51:23;;;;;;;31.27;25.40;;;;;;;9.84;100.00;100679.47;5201615;28;20100;-79
2023/08/31 03:53:56;;;;;;;32.87;25.83;;;;;;;9.85;100.00;100682.91;5201364;28;20030;-78
2023/08/31 03:56:28;;;;;;;34.60;25.63;;;;;;;9.83;100.00;100669.91;5201308;28;20474;-79
2023/08/31 03:59:00;;;;;;;30.13;25.83;;;;;;;9.78;100.00;100671.72;5184079;28;20038;-79
2023/08/31 04:01:32;;;;;;;33.00;26.73;;;;;;;9.73;100.00;100677.88;5201341;28;20486;-79
2023/08/31 04:04:04;;;;;;;30.77;26.43;;;;;;;9.72;100.00;100681.34;5201008;28;20034;-80
2023/08/31 04:06:36;;;;;;;39.03;28.17;;;;;;;9.72;100.00;100678.75;5200915;28;20027;-78
2023/08/31 04:09:07;;;;;;;31.17;26.13;;;;;;;9.69;100.00;100687.44;5200895;28;20099;-78
2023/08/31 04:11:39;;;;;;;31.43;27.93;;;;;;;9.64;100.00;100686.63;5200900;28;20045;-79
2023/08/31 04:14:10;;;;;;;33.40;27.37;;;;;;;9.67;100.00;100691.81;5201504;28;20070;-79
2023/08/31 04:16:41;;;;;;;29.77;25.23;;;;;;;9.72;100.00;100691.75;5201198;28;20030;-83
2023/08/31 04:19:13;;;;;;;30.30;25.23;;;;;;;9.64;100.00;100695.31;5200918;28;20023;-79
2023/08/31 04:21:44;;;;;;;26.83;24.00;;;;;;;9.69;100.00;100703.03;5183628;28;20121;-80
2023/08/31 04:24:16;;;;;;;27.70;24.83;;;;;;;9.64;100.00;100700.53;5201149;28;20455;-79
2023/08/31 04:26:49;;;;;;;29.97;25.17;;;;;;;9.66;100.00;100700.50;5201269;28;20033;-78
2023/08/31 04:29:21;;;;;;;29.48;23.13;;;;;;;9.63;100.00;100700.53;5201005;28;20109;-78
2023/08/31 04:31:52;;;;;;;27.80;23.57;;;;;;;9.61;100.00;100708.34;5201797;28;20172;-80
2023/08/31 04:34:23;;;;;;;27.63;23.03;;;;;;;9.60;100.00;100708.38;5200867;28;20030;-79
2023/08/31 04:36:55;;;;;;;27.93;24.00;;;;;;;9.57;100.00;100706.66;5200603;28;20026;-79
2023/08/31 04:39:27;;;;;;;27.63;21.97;;;;;;;9.54;100.00;100705.81;5201354;28;20034;-79
2023/08/31 04:41:58;;;;;;;26.67;21.70;;;;;;;9.55;100.00;100713.63;5201546;28;20378;-80
2023/08/31 04:44:30;;;;;;;26.43;21.73;;;;;;;9.56;100.00;100717.91;5167274;28;20458;-79
2023/08/31 04:47:01;;;;;;;24.40;20.13;;;;;;;9.54;100.00;100718.84;5200527;28;20026;-79
2023/08/31 04:49:33;;;;;;;22.80;19.67;;;;;;;9.52;100.00;100725.81;5200684;28;20470;-78
2023/08/31 04:52:04;;;;;;;21.70;19.40;;;;;;;9.52;100.00;100721.44;5200632;28;20030;-80
2023/08/31 04:54:36;;;;;;;20.85;18.00;;;;;;;9.54;100.00;100717.09;5182993;28;20038;-80
2023/08/31 04:57:07;;;;;;;19.63;17.10;;;;;;;9.52;100.00;100718.84;5200286;28;20034;-79
2023/08/31 04:59:39;;;;;;;19.23;16.93;;;;;;;9.53;100.00;100720.59;5200601;28;20088;-79
2023/08/31 05:02:10;;;;;;;19.17;16.13;;;;;;;9.52;100.00;100733.59;5200560;28;20041;-81
2023/08/31 05:04:41;;;;;;;21.37;16.43;;;;;;;9.54;100.00;100731.84;5200332;28;20038;-80
2023/08/31 05:07:13;;;;;;;18.07;16.17;;;;;;;9.54;100.00;100724.03;5199717;28;20121;-80
2023/08/31 05:09:44;;;;;;;20.60;16.13;;;;;;;9.53;100.00;100743.13;5200483;28;20442;-80
2023/08/31 05:12:17;;;;;;;21.80;15.70;;;;;;;9.55;100.00;100730.97;5202697;28;20113;-79
2023/08/31 05:14:48;;;;;;;17.67;15.15;;;;;;;9.54;100.00;100748.31;5190099;28;20081;-80
2023/08/31 05:17:21;;;;;;;16.80;14.83;;;;;;;9.53;100.00;100745.72;5206834;28;20030;-78
2023/08/31 05:19:53;;;;;;;15.00;13.20;;;;;;;9.56;100.00;100748.28;5206520;28;20489;-79
2023/08/31 05:22:24;;;;;;;16.63;13.53;;;;;;;9.54;100.00;100752.66;5206446;28;20035;-80
2023/08/31 05:24:56;;;;;;;15.57;13.33;;;;;;;9.56;100.00;100758.72;5205952;28;20039;-80
2023/08/31 05:27:27;;;;;;;15.83;13.20;;;;;;;9.58;100.00;100751.75;5206547;28;20121;-80
2023/08/31 05:29:58;;;;;;;15.77;12.97;;;;;;;9.60;100.00;100760.41;5207311;28;20057;-78
2023/08/31 05:32:30;;;;;;;14.53;12.67;;;;;;;9.59;100.00;100769.09;5208885;28;20041;-78
2023/08/31 05:35:03;;;;;;;15.70;12.23;;;;;;;9.58;100.00;100767.34;5208189;28;20070;-79
2023/08/31 05:37:35;;;;;;;;;;;;;;;9.57;100.00;100773.47;5206486;28;20033;-80
2023/08/31 05:40:10;;;;;;;14.25;11.75;;;;;;;9.65;100.00;100774.25;5204776;28;20273;-79
2023/08/31 05:42:42;;;;;;;12.35;11.13;;;;;;;9.67;100.00;100773.34;5204734;28;20034;-80
2023/08/31 05:45:13;;;;;;;14.38;11.77;;;;;;;9.70;100.00;100777.66;5204521;28;20038;-80
2023/08/31 05:47:47;;;;;;;12.73;11.17;;;;;;;9.72;100.00;100778.50;5204605;28;20101;-79
2023/08/31 05:50:18;;;;;;;16.25;12.00;;;;;;;9.76;100.00;100787.19;5186553;28;20070;-80
2023/08/31 05:52:50;;;;;;;14.83;12.00;;;;;;;9.83;100.00;100778.41;5203919;28;20501;-79
2023/08/31 05:55:21;;;;;;;15.43;11.93;;;;;;;9.89;100.00;100782.72;5203706;28;20077;-81
2023/08/31 05:57:52;;;;;;;12.67;11.47;;;;;;;9.96;100.00;100785.22;5203963;28;20022;-80
2023/08/31 06:00:24;;;;;;;12.30;11.07;;;;;;;10.00;100.00;100783.47;5203686;28;20037;-80
2023/08/31 06:02:55;;;;;;;13.73;11.87;;;;;;;10.09;100.00;100785.09;5186324;28;20490;-80
2023/08/31 06:05:28;;;;;;;12.63;11.23;;;;;;;10.16;100.00;100779.81;5203567;28;20033;-80
2023/08/31 06:08:00;;;;;;;14.93;11.63;;;;;;;10.23;100.00;100788.41;5203146;28;20474;-79
2023/08/31 06:10:31;;;;;;;13.00;11.07;;;;;;;10.29;100.00;100788.34;5185344;28;20055;-80
2023/08/31 06:13:03;;;;;;;13.83;10.97;;;;;;;10.39;100.00;100789.97;5185950;28;20089;-81
2023/08/31 06:15:34;;;;;;;13.83;11.00;;;;;;;10.47;100.00;100787.28;5203454;28;20045;-81
2023/08/31 06:18:06;;;;;;;12.70;10.70;;;;;;;10.55;100.00;100800.22;5203041;28;20034;-78
2023/08/31 06:20:37;;;;;;;12.20;10.27;;;;;;;10.64;100.00;100804.47;5203414;28;20030;-79
2023/08/31 06:23:10;;;;;;;16.70;10.77;;;;;;;10.73;100.00;100799.97;5185767;28;20089;-79
2023/08/31 06:25:41;;;;;;;;;;;;;;;10.81;100.00;100802.50;5203646;28;20054;-80
2023/08/31 06:28:12;;;;;;;17.25;10.95;;;;;;;10.90;100.00;100810.19;5203302;28;19988;-80
2023/08/31 06:30:46;;;;;;;12.13;9.90;;;;;;;10.98;100.00;100806.59;5202825;28;20381;-80
2023/08/31 06:33:18;;;;;;;14.98;8.85;;;;;;;11.04;100.00;100809.13;5203043;28;20105;-80
2023/08/31 06:35:51;;;;;;;10.63;9.35;;;;;;;11.15;100.00;100816.81;5202911;28;20027;-80
2023/08/31 06:38:22;;;;;;;14.73;9.52;;;;;;;11.21;100.00;100824.56;5202404;28;20027;-79
2023/08/31 06:40:58;;;;;;;12.73;8.30;;;;;;;11.28;100.00;100818.34;5202535;28;20038;-80
2023/08/31 06:43:30;;;;;;;11.75;8.82;;;;;;;11.40;100.00;100819.91;5203013;28;20431;-80
2023/08/31 06:46:01;;;;;;;13.10;8.30;;;;;;;11.46;100.00;100825.91;5202513;28;20033;-79
2023/08/31 06:48:33;;;;;;;15.07;8.17;;;;;;;11.54;100.00;100824.91;5202498;28;20440;-79
2023/08/31 06:51:04;;;;;;;9.40;8.47;;;;;;;11.63;100.00;100833.44;5202407;28;20454;-79
2023/08/31 06:53:37;;;;;;;13.30;8.23;;;;;;;11.73;100.00;100833.31;5202790;28;20026;-78
2023/08/31 06:56:08;;;;;;;14.55;8.13;;;;;;;11.79;100.00;100831.44;5203700;28;20516;-79
2023/08/31 06:58:40;;;;;;;16.57;8.83;;;;;;;11.91;100.00;100834.75;5203698;28;20030;-80
2023/08/31 07:01:12;;;;;;;11.67;9.07;;;;;;;12.03;100.00;100831.94;5202988;28;20026;-79
2023/08/31 07:03:44;;;;;;;10.98;8.48;;;;;;;12.10;100.00;100835.31;5202554;28;20037;-80
2023/08/31 07:06:15;;;;;;;13.07;8.10;;;;;;;12.19;100.00;100833.38;5202531;28;20425;-80
2023/08/31 07:08:47;;;;;;;10.00;7.73;;;;;;;12.29;100.00;100839.28;5201769;28;20027;-80
2023/08/31 07:11:18;;;;;;;12.27;8.63;;;;;;;12.36;100.00;100840.91;5202448;28;20028;-77
2023/08/31 07:13:50;;;;;;;13.53;7.57;;;;;;;12.50;100.00;100839.78;5202208;28;20031;-81
2023/08/31 07:16:22;;;;;;;11.73;8.33;;;;;;;12.57;100.00;100842.25;5202387;28;20110;-79
2023/08/31 07:18:53;;;;;;;9.53;7.20;;;;;;;12.72;100.00;100845.44;5202087;28;20038;-80
2023/08/31 07:21:24;;;;;;;13.83;8.00;;;;;;;12.85;100.00;100846.91;5202008;28;20030;-79
2023/08/31 07:23:57;;;;;;;12.03;7.70;;;;;;;12.91;100.00;100849.38;5201964;28;20532;-80
2023/08/31 07:26:28;;;;;;;13.40;6.88;;;;;;;13.05;100.00;100858.69;5202157;28;20033;-81
2023/08/31 07:29:04;;;;;;;11.38;7.28;;;;;;;13.13;100.00;100854.13;5202114;28;20030;-80
2023/08/31 07:31:36;;;;;;;11.18;7.63;;;;;;;13.22;100.00;100858.31;5201947;28;20022;-80
2023/08/31 07:34:07;;;;;;;12.17;7.03;;;;;;;13.34;100.00;100854.59;5184578;28;20369;-81
2023/08/31 07:36:39;;;;;;;12.63;8.03;;;;;;;13.41;100.00;100846.56;5184631;28;20030;-80
2023/08/31 07:39:10;;;;;;;10.23;6.55;;;;;;;13.55;100.00;100853.22;5201402;28;20049;-79
2023/08/31 07:41:42;;;;;;;15.83;7.53;;;;;;;13.68;100.00;100857.25;5201699;28;20113;-81
2023/08/31 07:44:13;;;;;;;14.10;6.93;;;;;;;13.79;100.00;100857.84;5184347;28;20026;-79
2023/08/31 07:46:45;;;;;;;10.07;6.13;;;;;;;13.88;100.00;100851.53;5202085;28;20100;-80
2023/08/31 07:49:16;;;;;;;12.27;6.93;;;;;;;13.98;100.00;100863.50;5184362;28;20014;-79
2023/08/31 07:51:48;;;;;;;10.23;6.40;;;;;;;14.11;100.00;100863.19;5201581;28;20030;-79
2023/08/31 07:54:23;;;;;;;8.43;6.60;;;;;;;14.24;100.00;100864.56;5201851;28;20022;-80
2023/08/31 07:56:54;;;;;;;7.13;6.15;;;;;;;14.37;100.00;100860.69;5201598;28;20026;-80
2023/08/31 07:59:25;;;;;;;14.23;5.77;;;;;;;14.45;100.00;100857.88;5201655;28;20065;-81
2023/08/31 08:01:57;;;;;;;9.60;6.10;;;;;;;14.57;100.00;100860.16;5201497;28;20358;-80
2023/08/31 08:04:29;;;;;;;12.50;6.50;;;;;;;14.68;100.00;100864.28;5202306;28;20577;-81
2023/08/31 08:07:01;;;;;;;8.43;6.05;;;;;;;14.81;100.00;100870.91;5201156;28;20374;-80
2023/08/31 08:09:32;;;;;;;8.60;6.07;;;;;;;14.89;100.00;100884.66;5201002;28;20054;-82
2023/08/31 08:12:04;;;;;;;8.43;5.97;;;;;;;14.89;100.00;100876.78;5201328;28;20130;-80
2023/08/31 08:14:35;;;;;;;10.15;5.95;;;;;;;14.98;100.00;100872.16;5183877;28;20038;-79
2023/08/31 08:17:07;;;;;;;9.63;6.30;;;;;;;15.03;100.00;100884.25;5201699;28;20114;-81
2023/08/31 08:19:38;;;;;;;10.53;5.73;;;;;;;15.13;100.00;100883.06;5201490;28;20077;-79
2023/08/31 08:22:09;;;;;;;7.93;5.57;;;;;;;15.22;100.00;100875.81;5201158;28;20022;-81
2023/08/31 08:24:41;;;;;;;13.50;6.30;;;;;;;15.36;100.00;100881.50;5201207;28;20085;-80
2023/08/31 08:27:12;;;;;;;14.43;6.13;;;;;;;15.52;100.00;100883.63;5201913;28;20034;-80
2023/08/31 08:29:45;;;;;;;10.03;6.23;;;;;;;15.63;100.00;100887.66;5201267;28;20041;-82
2023/08/31 08:32:16;;;;;;;13.23;6.50;;;;;;;15.69;100.00;100891.84;5201329;28;20018;-80
2023/08/31 08:34:47;;;;;;;11.43;6.00;;;;;;;15.76;99.55;100897.75;5201280;28;20466;-81
2023/08/31 08:37:19;;;;;;;10.63;6.40;;;;;;;15.97;99.17;100897.09;5200867;28;20034;-80
2023/08/31 08:39:50;;;;;;;10.83;6.43;;;;;;;15.99;97.59;100895.25;5201277;28;20030;-80
2023/08/31 08:42:24;;;;;;;11.90;5.87;;;;;;;16.28;99.02;100900.47;5183069;28;20045;-80
2023/08/31 08:44:56;;;;;;;9.15;5.82;;;;;;;16.51;96.89;100889.09;5200709;28;20327;-81
2023/08/31 08:47:29;;;;;;;12.60;7.00;;;;;;;16.55;95.10;100901.22;5201428;28;20454;-79
2023/08/31 08:50:02;;;;;;;9.68;6.15;;;;;;;16.80;95.11;100901.19;5201512;28;20481;-82
2023/08/31 08:52:34;;;;;;;10.20;5.80;;;;;;;16.75;92.65;100903.16;5201027;28;20027;-81
2023/08/31 08:55:06;;;;;;;;;;;;;;;16.95;92.00;100908.56;5184005;28;20027;-83
2023/08/31 08:57:38;;;;;;;8.02;5.13;;;;;;;16.94;89.73;100912.13;5200904;28;19905;-82
2023/08/31 09:00:10;;;;;;;12.37;5.60;;;;;;;16.94;89.51;100909.47;5200807;28;20035;-81
2023/08/31 09:02:42;;;;;;;;;;;;;;;17.25;91.57;100920.63;5201048;28;20030;-81
2023/08/31 09:05:13;;;;;;;8.52;4.47;;;;;;;17.20;88.61;100909.41;5203943;28;19917;-82
2023/08/31 09:08:03;;;;;;;8.93;4.80;;;;;;;17.46;89.22;100922.41;5204992;28;20485;-82
2023/08/31 09:10:40;;;;;;;10.15;4.50;;;;;;;17.24;87.33;100913.63;5204649;28;20050;-81
2023/08/31 09:13:13;;;;;;;8.20;4.22;;;;;;;17.48;88.03;100915.34;5204829;28;20018;-82
2023/08/31 09:15:47;;;;;;;10.30;4.32;;;;;;;17.77;84.92;100917.72;5205186;28;20098;-82
2023/08/31 09:18:24;;;;;;;7.65;4.40;;;;;;;18.25;82.61;100926.31;5205661;28;20034;-82
2023/08/31 09:20:56;;;;;;;8.00;4.90;;;;;;;18.52;78.54;100922.47;5189162;28;20058;-81
2023/08/31 09:23:28;;;;;;;6.88;4.57;;;;;;;18.95;76.26;100917.09;5206655;28;20034;-81
2023/08/31 09:25:59;;;;;;;9.37;3.90;;;;;;;19.50;73.09;100926.88;5188720;28;20030;-82
2023/08/31 09:28:31;;;;;;;8.63;4.13;;;;;;;19.92;72.01;100927.53;5205909;28;20030;-80
2023/08/31 09:31:07;;;;;;;7.93;4.13;;;;;;;20.49;67.89;100917.53;5205350;28;20454;-82
2023/08/31 09:33:50;;;;;;;6.63;3.38;;;;;;;19.43;69.19;100922.78;5189548;28;20026;-81
2023/08/31 09:36:22;;;;;;;9.77;4.07;;;;;;;18.34;73.50;100923.28;5207061;28;20019;-80
2023/08/31 09:38:57;;;;;;;8.52;3.35;;;;;;;18.68;75.74;100917.38;5188368;28;20033;-81
2023/08/31 09:41:29;;;;;;;8.68;4.28;;;;;;;18.45;76.74;100925.44;5204336;28;20061;-81
2023/08/31 09:44:17;;;;;;;6.53;3.90;;;;;;;18.85;77.65;100924.59;5204532;28;20470;-81
2023/08/31 09:46:48;;;;;;;7.95;4.32;;;;;;;19.84;72.43;100928.75;5204186;28;20034;-82
2023/08/31 09:49:21;;;;;;;7.50;3.67;;;;;;;20.17;68.83;100927.13;5204385;28;20030;-82
2023/08/31 09:51:53;;;;;;;7.72;3.72;;;;;;;20.50;64.06;100934.31;5203627;28;20030;-81
2023/08/31 09:54:26;;;;;;;6.43;3.72;;;;;;;20.69;62.66;100913.88;5203936;28;20053;-83
2023/08/31 09:56:59;;;;;;;8.85;3.50;;;;;;;20.28;64.14;100927.44;5203997;28;20022;-81
2023/08/31 09:59:31;;;;;;;7.00;3.05;;;;;;;20.02;65.22;100934.91;5203848;28;20031;-82
2023/08/31 10:02:03;;;;;;;7.50;3.25;;;;;;;20.11;67.14;100938.91;5186544;28;20110;-82
2023/08/31 10:04:36;;;;;;;6.63;3.28;;;;;;;20.85;61.80;100926.28;5203675;28;20102;-82
2023/08/31 10:07:11;;;;;;;5.93;3.08;;;;;;;21.20;59.63;100926.19;5203191;28;20528;-81
2023/08/31 10:09:43;;;;;;;6.45;2.70;;;;;;;21.05;59.68;100930.53;5203570;28;20082;-81
2023/08/31 10:12:17;;;;;;;6.18;2.95;;;;;;;21.02;58.72;100950.09;5203673;28;20419;-80
2023/08/31 10:14:51;;;;;;;7.30;3.03;;;;;;;20.36;61.04;100941.16;5203190;28;20030;-82
2023/08/31 10:17:25;;;;;;;7.10;3.38;;;;;;;20.38;61.01;100928.72;5186114;28;20046;-82
2023/08/31 10:19:56;;;;;;;6.95;2.75;;;;;;;20.83;58.34;100929.03;5203241;28;20113;-82
2023/08/31 10:22:29;;;;;;;9.30;4.10;;;;;;;20.16;57.60;100942.19;5185973;28;20030;-82
2023/08/31 10:25:06;;;;;;;5.05;2.75;;;;;;;20.17;59.36;100940.38;5202951;28;20057;-82
2023/08/31 10:27:50;;;;;;;10.05;2.78;;;;;;;19.75;61.23;100925.69;5203364;28;20022;-81
2023/08/31 10:30:21;;;;;;;5.60;2.75;;;;;;;19.26;60.30;100929.75;5203431;28;20362;-82
2023/08/31 10:33:21;;;;;;;7.20;3.27;;;;;;;18.65;64.38;100928.06;5203282;28;20032;-82
2023/08/31 10:35:55;;;;;;;6.40;2.78;;;;;;;20.02;62.25;100926.13;5185766;28;20418;-81
2023/08/31 10:38:32;;;;;;;5.80;2.55;;;;;;;21.19;56.91;100922.69;5185529;28;20057;-83
2023/08/31 10:41:06;;;;;;;9.75;2.75;;;;;;;21.70;51.90;100929.63;5203062;28;20037;-81
2023/08/31 10:43:55;;;;;;;8.13;2.53;;;;;;;22.20;51.21;100921.38;5203307;28;20029;-80
2023/08/31 10:46:33;;;;;;;6.68;2.65;;;;;;;21.81;52.02;100914.78;5203003;28;20038;-82
2023/08/31 10:49:11;;;;;;;5.20;2.35;;;;;;;22.61;49.07;100913.69;5202846;28;20056;-83
2023/08/31 10:51:44;;;;;;;9.80;2.95;;;;;;;23.31;46.83;100903.06;5202928;28;20493;-82
2023/08/31 10:54:34;;;;;;;7.05;2.90;;;;;;;21.92;48.46;100900.91;5203547;28;20049;-82
2023/08/31 10:57:06;;;;;;;6.07;2.45;;;;;;;21.44;50.78;100894.78;5203780;28;20358;-82
2023/08/31 10:59:56;;;;;;;6.30;2.85;;;;;;;22.35;47.52;100887.75;5203213;28;20061;-81
2023/08/31 11:02:35;;;;;;;4.65;2.47;;;;;;;22.47;46.58;100896.75;5202894;28;20026;-80
2023/08/31 11:05:09;;;;;;;5.13;2.28;;;;;;;24.13;43.40;100906.56;5202667;28;20026;-80
2023/08/31 11:07:42;;;;;;;9.35;3.30;;;;;;;23.75;42.68;100896.66;5202318;28;20077;-80
2023/08/31 11:10:19;;;;;;;5.38;2.75;;;;;;;22.27;46.15;100889.97;5202509;28;20461;-82
2023/08/31 11:12:52;;;;;;;7.47;2.83;;;;;;;21.02;49.04;100901.53;5202649;28;20419;-79
2023/08/31 11:15:26;;;;;;;7.15;2.47;;;;;;;20.19;51.29;100899.66;5202637;28;20060;-81
2023/08/31 11:17:58;;;;;;;5.60;2.65;;;;;;;19.58;53.85;100898.28;5202392;28;20110;-78
2023/08/31 11:20:31;;;;;;;8.65;3.30;;;;;;;19.19;55.71;100891.34;5202573;28;20030;-81
2023/08/31 11:23:03;;;;;;;4.78;2.33;;;;;;;20.81;54.33;100890.31;5202348;28;20026;-81
2023/08/31 11:25:34;;;;;;;6.70;2.95;;;;;;;22.82;47.12;100887.56;5202261;28;20030;-81
2023/08/31 11:28:06;;;;;;;5.53;2.47;;;;;;;24.03;44.65;100895.69;5201019;28;20049;-82
2023/08/31 11:30:38;;;;;;;6.25;2.17;;;;;;;24.78;42.29;100883.47;5184772;28;20025;-83
2023/08/31 11:33:11;;;;;;;6.25;2.67;;;;;;;24.59;42.56;100889.25;5201960;28;20113;-81
2023/08/31 11:35:44;;;;;;;6.07;2.63;;;;;;;24.38;42.96;100894.25;5201870;28;20104;-81
2023/08/31 11:38:16;;;;;;;5.95;2.47;;;;;;;24.14;43.90;100891.44;5184282;28;20042;-81
2023/08/31 11:40:48;;;;;;;;;;;;;;;24.38;44.56;100896.91;5202417;28;20035;-80
2023/08/31 11:43:20;;;;;;;7.13;3.03;;;;;;;22.34;47.54;100883.38;5202321;28;19953;-81